createdAt,value
2023-06-06T00:03:01.328Z,2.40
2023-06-06T00:08:04.104Z,2.50
2023-06-06T00:13:06.772Z,2.53
2023-06-06T00:18:10.051Z,2.47
2023-06-06T00:23:13.936Z,2.58
2023-06-06T00:28:16.890Z,2.78
2023-06-06T00:33:19.677Z,2.25
2023-06-06T00:38:22.391Z,2.35
2023-06-06T00:43:25.054Z,2.63
2023-06-06T00:48:27.969Z,2.33
2023-06-06T00:53:30.988Z,2.55
2023-06-06T00:58:36.707Z,2.55
2023-06-06T01:03:42.351Z,2.70
2023-06-06T01:08:47.408Z,2.20
2023-06-06T01:14:06.877Z,2.70
2023-06-06T01:19:17.617Z,2.90
2023-06-06T01:24:21.264Z,2.40
2023-06-06T01:29:24.593Z,1.92
2023-06-06T01:34:49.991Z,2.80
2023-06-06T01:39:57.901Z,2.42
2023-06-06T01:45:05.098Z,2.63
2023-06-06T01:50:09.009Z,1.88
2023-06-06T01:55:11.715Z,2.30
2023-06-06T02:00:14.661Z,2.38
2023-06-06T02:05:17.609Z,2.40
2023-06-06T02:10:20.702Z,2.03
2023-06-06T02:15:27.723Z,2.33
2023-06-06T02:20:30.614Z,2.60
2023-06-06T02:25:34.468Z,2.25
2023-06-06T02:30:37.200Z,2.22
2023-06-06T02:35:40.082Z,2.20
2023-06-06T02:40:42.723Z,2.10
2023-06-06T02:45:48.151Z,1.70
2023-06-06T02:50:51.118Z,1.98
2023-06-06T02:55:53.976Z,1.80
2023-06-06T03:00:58.390Z,1.92
2023-06-06T03:06:02.033Z,1.60
2023-06-06T03:11:04.954Z,1.95
2023-06-06T03:16:07.781Z,1.77
2023-06-06T03:21:15.811Z,1.90
2023-06-06T03:26:22.156Z,1.90
2023-06-06T03:31:25.553Z,1.60
2023-06-06T03:36:33.810Z,2.50
2023-06-06T03:41:37.392Z,2.08
2023-06-06T03:46:42.370Z,1.88
2023-06-06T03:51:45.336Z,1.40
2023-06-06T03:56:49.734Z,1.45
2023-06-06T04:01:54.471Z,1.63
2023-06-06T04:07:00.926Z,1.52
2023-06-06T04:12:04.420Z,1.65
2023-06-06T04:17:08.832Z,1.70
2023-06-06T04:22:11.646Z,1.60
2023-06-06T04:27:15.205Z,1.92
2023-06-06T04:32:20.183Z,1.45
2023-06-06T04:37:23.751Z,1.60
2023-06-06T04:42:34.213Z,1.50
2023-06-06T04:47:41.812Z,1.50
2023-06-06T04:52:44.792Z,1.83
2023-06-06T04:57:47.567Z,1.25
2023-06-06T05:02:51.438Z,1.60
2023-06-06T05:07:54.259Z,1.85
2023-06-06T05:12:56.955Z,1.67
2023-06-06T05:17:59.622Z,1.40
2023-06-06T05:23:02.389Z,1.80
2023-06-06T05:28:05.159Z,1.15
2023-06-06T05:33:09.938Z,1.50
2023-06-06T05:38:13.514Z,1.40
2023-06-06T05:43:17.326Z,1.42
2023-06-06T05:48:20.150Z,1.35
2023-06-06T05:53:25.027Z,1.20
2023-06-06T05:58:27.975Z,1.90
2023-06-06T06:03:30.758Z,0.88
2023-06-06T06:08:35.589Z,1.13
2023-06-06T06:13:38.478Z,1.20
2023-06-06T06:18:41.230Z,1.10
2023-06-06T06:23:43.991Z,1.20
2023-06-06T06:28:51.367Z,1.40
2023-06-06T06:33:54.387Z,1.30
2023-06-06T06:38:57.216Z,2.10
2023-06-06T06:43:59.837Z,1.42
2023-06-06T06:49:02.546Z,1.95
2023-06-06T06:54:05.463Z,1.38
2023-06-06T06:59:08.939Z,2.38
2023-06-06T07:04:11.888Z,1.00
2023-06-06T07:09:15.758Z,1.10
2023-06-06T07:14:18.433Z,1.55
2023-06-06T07:19:21.088Z,1.50
2023-06-06T07:24:24.409Z,1.10
2023-06-06T07:29:28.587Z,1.23
2023-06-06T07:34:31.509Z,1.77
2023-06-06T07:39:34.223Z,1.60
2023-06-06T07:44:36.906Z,1.63
2023-06-06T07:49:42.409Z,1.73
2023-06-06T07:54:45.343Z,1.25
2023-06-06T07:59:48.288Z,3.75
2023-06-06T08:04:51.615Z,2.67
2023-06-06T08:09:54.699Z,2.00
2023-06-06T08:14:57.645Z,1.50
2023-06-06T08:20:00.376Z,1.58
2023-06-06T08:25:09.574Z,2.75
2023-06-06T08:30:12.863Z,3.10
2023-06-06T08:35:15.575Z,1.58
2023-06-06T08:40:18.752Z,1.50
2023-06-06T08:45:22.998Z,1.40
2023-06-06T08:50:27.503Z,1.38
2023-06-06T08:55:30.181Z,1.30
2023-06-06T09:00:33.050Z,1.40
2023-06-06T09:05:41.210Z,1.50
2023-06-06T09:10:45.614Z,1.60
2023-06-06T09:15:49.849Z,1.48
2023-06-06T09:20:55.586Z,1.17
2023-06-06T09:25:58.953Z,1.80
2023-06-06T09:31:01.592Z,2.70
2023-06-06T09:36:05.729Z,1.50
2023-06-06T09:41:08.528Z,1.33
2023-06-06T09:46:16.932Z,1.80
2023-06-06T09:51:20.099Z,2.10
2023-06-06T09:56:24.748Z,1.60
2023-06-06T10:01:29.714Z,1.70
2023-06-06T10:06:38.822Z,3.38
2023-06-06T10:11:41.696Z,2.05
2023-06-06T10:16:44.887Z,2.00
2023-06-06T10:21:49.600Z,2.08
2023-06-06T10:27:05.379Z,1.52
2023-06-06T10:32:18.623Z,2.17
2023-06-06T10:37:23.310Z,1.98
2023-06-06T10:42:40.167Z,2.85
2023-06-06T10:47:49.043Z,1.35
2023-06-06T10:52:55.979Z,1.42
2023-06-06T10:58:04.560Z,1.50
2023-06-06T11:03:17.178Z,1.55
2023-06-06T11:08:20.262Z,1.70
2023-06-06T11:13:35.018Z,2.08
2023-06-06T11:18:41.309Z,2.35
2023-06-06T11:23:45.258Z,2.80
2023-06-06T11:28:48.079Z,1.90
2023-06-06T11:33:51.493Z,3.05
2023-06-06T11:38:54.150Z,2.13
2023-06-06T11:43:57.096Z,2.25
2023-06-06T11:49:01.805Z,1.60
2023-06-06T11:54:14.673Z,2.33
2023-06-06T11:59:17.527Z,2.13
2023-06-06T12:04:27.752Z,2.03
2023-06-06T12:09:31.084Z,2.20
2023-06-06T12:14:34.877Z,2.40
2023-06-06T12:19:38.264Z,2.47
2023-06-06T12:24:48.617Z,2.05
2023-06-06T12:29:55.870Z,2.13
2023-06-06T12:35:01.098Z,2.38
2023-06-06T12:40:24.422Z,2.70
2023-06-06T12:45:28.890Z,1.98
2023-06-06T12:50:31.760Z,2.28
2023-06-06T12:55:34.501Z,2.33
2023-06-06T13:00:39.385Z,2.33
2023-06-06T13:05:42.058Z,2.05
2023-06-06T13:10:45.095Z,2.50
2023-06-06T13:15:47.867Z,2.58
2023-06-06T13:20:54.843Z,2.63
2023-06-06T13:25:57.714Z,1.88
2023-06-06T13:31:00.420Z,1.88
2023-06-06T13:36:03.165Z,2.50
2023-06-06T13:41:05.880Z,1.98
2023-06-06T13:46:08.579Z,2.67
2023-06-06T13:51:13.285Z,2.13
2023-06-06T13:56:16.950Z,2.20
2023-06-06T14:01:21.597Z,3.03
2023-06-06T14:06:24.915Z,1.77
2023-06-06T14:11:27.755Z,3.47
2023-06-06T14:16:30.428Z,3.00
2023-06-06T14:21:36.043Z,2.33
2023-06-06T14:26:39.391Z,2.83
2023-06-06T14:31:42.209Z,2.85
2023-06-06T14:36:45.688Z,2.20
2023-06-06T14:41:48.410Z,2.00
2023-06-06T14:46:51.198Z,2.53
2023-06-06T14:51:54.507Z,3.25
2023-06-06T14:56:57.226Z,3.00
2023-06-06T15:02:00.096Z,3.20
2023-06-06T15:07:05.288Z,3.03
2023-06-06T15:12:13.334Z,2.92
2023-06-06T15:17:16.669Z,2.80
2023-06-06T15:22:19.392Z,2.67
2023-06-06T15:27:22.342Z,3.75
2023-06-06T15:32:25.713Z,3.30
2023-06-06T15:37:28.585Z,2.58
2023-06-06T15:42:31.250Z,2.55
2023-06-06T15:47:33.919Z,2.70
2023-06-06T15:52:36.594Z,2.70
2023-06-06T15:57:39.453Z,2.38
2023-06-06T16:02:42.209Z,1.70
2023-06-06T16:07:45.285Z,2.00
2023-06-06T16:12:48.203Z,2.65
2023-06-06T16:17:51.256Z,2.40
2023-06-06T16:22:54.107Z,2.45
2023-06-06T16:27:56.881Z,4.38
2023-06-06T16:32:59.630Z,2.05
2023-06-06T16:38:02.388Z,1.50
2023-06-06T16:43:04.978Z,1.58
2023-06-06T16:48:12.492Z,2.35
2023-06-06T16:53:16.765Z,1.90
2023-06-06T16:58:19.380Z,2.00
2023-06-06T17:03:23.855Z,2.42
2023-06-06T17:08:26.657Z,2.55
2023-06-06T17:13:30.103Z,1.80
2023-06-06T17:18:32.813Z,1.98
2023-06-06T17:23:36.608Z,2.05
2023-06-06T17:28:39.336Z,1.77
2023-06-06T17:33:42.044Z,2.00
2023-06-06T17:38:44.776Z,1.65
2023-06-06T17:43:47.477Z,3.95
2023-06-06T17:48:51.479Z,2.30
2023-06-06T17:53:54.395Z,2.05
2023-06-06T17:58:57.014Z,2.22
2023-06-06T18:04:03.655Z,1.90
2023-06-06T18:09:10.500Z,2.70
2023-06-06T18:14:13.315Z,2.60
2023-06-06T18:19:16.118Z,2.42
2023-06-06T18:24:18.737Z,3.35
2023-06-06T18:29:21.535Z,3.70
2023-06-06T18:34:24.620Z,3.53
2023-06-06T18:39:27.442Z,4.10
2023-06-06T18:44:30.083Z,5.95
2023-06-06T18:49:32.710Z,5.68
2023-06-06T18:54:35.584Z,7.22
2023-06-06T18:59:38.972Z,6.18
2023-06-06T19:04:41.660Z,6.95
2023-06-06T19:09:44.569Z,7.57
2023-06-06T19:14:47.312Z,7.03
2023-06-06T19:19:49.895Z,6.63
2023-06-06T19:24:52.497Z,4.35
2023-06-06T19:29:55.615Z,3.90
2023-06-06T19:34:58.595Z,4.40
2023-06-06T19:40:01.663Z,5.78
2023-06-06T19:45:08.326Z,5.32
2023-06-06T19:50:12.031Z,4.22
2023-06-06T19:55:15.248Z,4.72
2023-06-06T20:00:18.485Z,4.45
2023-06-06T20:05:21.491Z,5.47
2023-06-06T20:10:24.757Z,4.13
2023-06-06T20:15:27.840Z,5.28
2023-06-06T20:20:30.597Z,4.65
2023-06-06T20:25:33.535Z,4.55
2023-06-06T20:30:38.646Z,5.10
2023-06-06T20:35:41.312Z,3.95
2023-06-06T20:40:47.369Z,4.40
2023-06-06T20:45:51.952Z,3.95
2023-06-06T20:50:54.753Z,3.63
2023-06-06T20:55:57.575Z,3.95
2023-06-06T21:01:00.397Z,3.55
2023-06-06T21:06:03.054Z,3.40
2023-06-06T21:11:06.908Z,3.47
2023-06-06T21:16:09.680Z,3.30
2023-06-06T21:21:12.336Z,3.22
2023-06-06T21:26:15.176Z,2.80
2023-06-06T21:31:17.869Z,3.00
2023-06-06T21:36:20.570Z,11.77
2023-06-06T21:41:23.176Z,4.22
2023-06-06T21:46:25.870Z,3.00
2023-06-06T21:51:28.608Z,3.10
2023-06-06T21:56:31.321Z,2.95
2023-06-06T22:01:34.001Z,2.70
2023-06-06T22:06:38.180Z,2.97
2023-06-06T22:11:40.877Z,3.08
2023-06-06T22:16:43.634Z,2.38
2023-06-06T22:21:46.652Z,2.55
2023-06-06T22:26:50.625Z,2.80
2023-06-06T22:31:53.443Z,3.03
2023-06-06T22:36:56.768Z,2.70
2023-06-06T22:41:59.695Z,2.90
2023-06-06T22:47:02.378Z,2.90
2023-06-06T22:52:05.545Z,2.50
2023-06-06T22:57:08.228Z,2.80
2023-06-06T23:02:10.953Z,2.53
2023-06-06T23:07:13.625Z,2.72
2023-06-06T23:12:16.368Z,2.92
2023-06-06T23:17:19.055Z,3.65
2023-06-06T23:22:30.408Z,2.90
2023-06-06T23:27:41.225Z,4.65
2023-06-06T23:32:44.040Z,3.13
2023-06-06T23:37:46.739Z,3.13
2023-06-06T23:42:49.483Z,3.00
2023-06-06T23:47:52.146Z,2.42
2023-06-06T23:52:56.171Z,2.33
2023-06-06T23:57:58.811Z,2.80
